createdAt,value
2018-01-16T00:01:40.941Z,96362.09
2018-01-16T00:04:12.193Z,96357.16
2018-01-16T00:06:43.251Z,96354.83
2018-01-16T00:09:14.352Z,96349.05
2018-01-16T00:11:45.425Z,96350.31
2018-01-16T00:14:16.597Z,96348.22
2018-01-16T00:16:47.653Z,96350.72
2018-01-16T00:19:18.971Z,96343.27
2018-01-16T00:21:50.112Z,96337.96
2018-01-16T00:24:21.362Z,96330.80
2018-01-16T00:26:52.617Z,96326.00
2018-01-16T00:29:23.719Z,96320.77
2018-01-16T00:31:54.783Z,96306.17
2018-01-16T00:34:26.159Z,96306.84
2018-01-16T00:36:57.275Z,96301.28
2018-01-16T00:39:28.425Z,96296.94
2018-01-16T00:41:59.480Z,96295.11
2018-01-16T00:44:30.730Z,96289.63
2018-01-16T00:47:01.842Z,96280.69
2018-01-16T00:49:33.027Z,96271.91
2018-01-16T00:52:04.293Z,96259.08
2018-01-16T00:54:35.459Z,96260.78
2018-01-16T00:57:06.545Z,96249.03
2018-01-16T00:59:37.703Z,96241.25
2018-01-16T01:02:08.872Z,96236.59
2018-01-16T01:04:40.131Z,96232.00
2018-01-16T01:07:11.212Z,96218.58
2018-01-16T01:09:43.287Z,96220.96
2018-01-16T01:12:14.593Z,96215.38
2018-01-16T01:14:45.692Z,96221.14
2018-01-16T01:17:16.764Z,96218.05
2018-01-16T01:19:47.874Z,96218.98
2018-01-16T01:22:19.073Z,96223.58
2018-01-16T01:24:50.329Z,96221.23
2018-01-16T01:27:21.474Z,96216.53
2018-01-16T01:29:52.625Z,96214.00
2018-01-16T01:32:23.669Z,96202.11
2018-01-16T01:34:54.904Z,96200.82
2018-01-16T01:37:26.062Z,96189.32
2018-01-16T01:39:57.841Z,96188.27
2018-01-16T01:42:28.909Z,96183.55
2018-01-16T01:44:59.988Z,96173.70
2018-01-16T01:47:31.078Z,96165.18
2018-01-16T01:50:02.232Z,96170.56
2018-01-16T01:52:33.361Z,96176.62
2018-01-16T01:55:04.550Z,96156.74
2018-01-16T01:57:35.589Z,96149.31
2018-01-16T02:00:06.697Z,96157.74
2018-01-16T02:02:38.045Z,96151.20
2018-01-16T02:05:09.293Z,96150.69
2018-01-16T02:07:40.359Z,96137.08
2018-01-16T02:10:11.502Z,96143.25
2018-01-16T02:12:42.632Z,96135.14
2018-01-16T02:15:14.375Z,96133.30
2018-01-16T02:17:45.541Z,96140.80
2018-01-16T02:20:17.199Z,96143.42
2018-01-16T02:22:48.334Z,96140.42
2018-01-16T02:25:20.494Z,96131.77
2018-01-16T02:27:51.537Z,96123.66
2018-01-16T02:30:22.678Z,96117.00
2018-01-16T02:32:53.767Z,96115.94
2018-01-16T02:35:25.004Z,96113.33
2018-01-16T02:37:57.409Z,96122.34
2018-01-16T02:40:28.511Z,96112.42
2018-01-16T02:42:59.882Z,96109.93
2018-01-16T02:45:30.981Z,96111.25
2018-01-16T02:48:02.153Z,96100.92
2018-01-16T02:50:33.327Z,96098.16
2018-01-16T02:53:04.771Z,96094.73
2018-01-16T02:55:35.840Z,96091.59
2018-01-16T02:58:06.989Z,96098.28
2018-01-16T03:00:38.109Z,96093.45
2018-01-16T03:03:09.256Z,96097.25
2018-01-16T03:05:41.308Z,96089.17
2018-01-16T03:08:12.567Z,96086.81
2018-01-16T03:10:44.251Z,96078.06
2018-01-16T03:13:15.358Z,96072.86
2018-01-16T03:15:46.628Z,96065.25
2018-01-16T03:18:18.492Z,96057.79
2018-01-16T03:20:49.609Z,96054.51
2018-01-16T03:23:20.687Z,96043.28
2018-01-16T03:25:51.833Z,96036.83
2018-01-16T03:28:22.856Z,96038.54
2018-01-16T03:30:53.970Z,96040.38
2018-01-16T03:33:25.165Z,96032.02
2018-01-16T03:35:56.418Z,96032.16
2018-01-16T03:38:27.534Z,96030.45
2018-01-16T03:40:58.653Z,96026.92
2018-01-16T03:43:29.743Z,96021.67
2018-01-16T03:46:00.894Z,96024.69
2018-01-16T03:48:32.256Z,96018.42
2018-01-16T03:51:03.612Z,96015.00
2018-01-16T03:53:35.285Z,96002.43
2018-01-16T03:56:06.424Z,96007.67
2018-01-16T03:58:37.662Z,95998.63
2018-01-16T04:01:08.832Z,96000.61
2018-01-16T04:03:39.924Z,95989.36
2018-01-16T04:06:11.098Z,95993.27
2018-01-16T04:08:42.353Z,95994.22
2018-01-16T04:11:13.706Z,95985.69
2018-01-16T04:13:44.826Z,95980.97
2018-01-16T04:16:15.911Z,95976.90
2018-01-16T04:18:46.994Z,95980.19
2018-01-16T04:21:18.096Z,95965.63
2018-01-16T04:23:56.604Z,95961.84
2018-01-16T04:26:27.852Z,95963.56
2018-01-16T04:28:59.102Z,95962.24
2018-01-16T04:31:30.351Z,95962.36
2018-01-16T04:34:01.488Z,95959.20
2018-01-16T04:36:32.592Z,95961.28
2018-01-16T04:39:03.711Z,95948.16
2018-01-16T04:41:34.939Z,95943.70
2018-01-16T04:44:06.115Z,95930.28
2018-01-16T04:46:38.373Z,95927.92
2018-01-16T04:49:09.489Z,95932.36
2018-01-16T04:51:40.573Z,95923.44
2018-01-16T04:54:11.651Z,95918.83
2018-01-16T04:56:43.150Z,95929.73
2018-01-16T04:59:14.227Z,95933.50
2018-01-16T05:01:46.102Z,95925.88
2018-01-16T05:04:17.315Z,95929.25
2018-01-16T05:06:48.431Z,95908.77
2018-01-16T05:09:19.495Z,95891.63
2018-01-16T05:11:50.553Z,95883.30
2018-01-16T05:14:21.794Z,95891.66
2018-01-16T05:16:52.942Z,95874.97
2018-01-16T05:19:24.048Z,95875.76
2018-01-16T05:21:55.297Z,95869.72
2018-01-16T05:24:26.477Z,95867.63
2018-01-16T05:26:57.544Z,95869.69
2018-01-16T05:29:29.291Z,95861.95
2018-01-16T05:32:00.540Z,95859.19
2018-01-16T05:34:31.631Z,95856.92
2018-01-16T05:37:03.669Z,95851.84
2018-01-16T05:39:35.004Z,95854.17
2018-01-16T05:42:06.120Z,95858.23
2018-01-16T05:44:41.074Z,95854.83
2018-01-16T05:47:12.133Z,95846.00
2018-01-16T05:49:43.854Z,95838.52
2018-01-16T05:52:15.037Z,95838.13
2018-01-16T05:54:46.150Z,95835.11
2018-01-16T05:57:17.317Z,95837.34
2018-01-16T05:59:48.466Z,95835.16
2018-01-16T06:02:19.592Z,95839.05
2018-01-16T06:04:50.767Z,95834.64
2018-01-16T06:07:22.115Z,95826.77
2018-01-16T06:09:53.476Z,95817.06
2018-01-16T06:12:24.575Z,95841.06
2018-01-16T06:14:55.664Z,95827.33
2018-01-16T06:17:26.733Z,95831.40
2018-01-16T06:19:58.062Z,95823.97
2018-01-16T06:22:29.113Z,95824.10
2018-01-16T06:25:00.199Z,95816.94
2018-01-16T06:27:31.403Z,95820.95
2018-01-16T06:30:02.651Z,95809.68
2018-01-16T06:32:33.745Z,95799.28
2018-01-16T06:35:05.047Z,95793.59
2018-01-16T06:37:36.292Z,95797.59
2018-01-16T06:40:07.434Z,95800.36
2018-01-16T06:42:38.693Z,95803.17
2018-01-16T06:45:10.346Z,95807.80
2018-01-16T06:47:42.727Z,95797.83
2018-01-16T06:50:13.783Z,95792.15
2018-01-16T06:52:45.003Z,95781.25
2018-01-16T06:55:16.117Z,95774.78
2018-01-16T06:57:47.461Z,95773.34
2018-01-16T07:00:18.769Z,95779.50
2018-01-16T07:02:49.858Z,95773.11
2018-01-16T07:05:21.267Z,95766.13
2018-01-16T07:07:52.314Z,95762.86
2018-01-16T07:10:23.561Z,95759.18
2018-01-16T07:12:54.651Z,95755.13
2018-01-16T07:15:25.783Z,95759.98
2018-01-16T07:17:56.895Z,95757.36
2018-01-16T07:20:27.976Z,95764.06
2018-01-16T07:22:59.048Z,95759.45
2018-01-16T07:25:30.164Z,95751.51
2018-01-16T07:28:01.385Z,95745.98
2018-01-16T07:30:32.532Z,95743.64
2018-01-16T07:33:03.666Z,95753.56
2018-01-16T07:35:34.754Z,95745.91
2018-01-16T07:38:05.901Z,95740.94
2018-01-16T07:40:37.222Z,95744.59
2018-01-16T07:43:08.297Z,95736.23
2018-01-16T07:45:39.387Z,95725.22
2018-01-16T07:48:11.186Z,95734.13
2018-01-16T07:50:42.591Z,95724.72
2018-01-16T07:53:13.692Z,95724.80
2018-01-16T07:55:44.919Z,95735.70
2018-01-16T07:58:16.030Z,95736.95
2018-01-16T08:00:47.217Z,95742.67
2018-01-16T08:03:18.569Z,95726.92
2018-01-16T08:05:49.632Z,95715.26
2018-01-16T08:08:21.310Z,95719.97
2018-01-16T08:10:52.511Z,95722.78
2018-01-16T08:13:23.770Z,95715.55
2018-01-16T08:15:54.847Z,95713.98
2018-01-16T08:18:26.061Z,95721.41
2018-01-16T08:20:57.161Z,95727.58
2018-01-16T08:23:28.249Z,95721.07
2018-01-16T08:25:59.341Z,95718.86
2018-01-16T08:28:30.584Z,95730.28
2018-01-16T08:31:01.849Z,95724.66
2018-01-16T08:33:33.144Z,95726.81
2018-01-16T08:36:04.281Z,95729.36
2018-01-16T08:38:35.367Z,95730.63
2018-01-16T08:41:06.470Z,95728.70
2018-01-16T08:43:37.557Z,95736.05
2018-01-16T08:46:08.784Z,95735.69
2018-01-16T08:48:39.845Z,95738.03
2018-01-16T08:51:11.385Z,95751.16
2018-01-16T08:53:43.579Z,95742.05
2018-01-16T08:56:14.804Z,95760.28
2018-01-16T08:58:45.889Z,95761.56
2018-01-16T09:01:17.781Z,95748.84
2018-01-16T09:03:49.054Z,95734.38
2018-01-16T09:06:35.244Z,95751.30
2018-01-16T09:09:06.394Z,95756.11
2018-01-16T09:11:37.523Z,95765.03
2018-01-16T09:14:08.937Z,95753.71
2018-01-16T09:16:40.036Z,95761.89
2018-01-16T09:19:11.296Z,95745.80
2018-01-16T09:21:42.545Z,95747.49
2018-01-16T09:24:13.695Z,95754.82
2018-01-16T09:26:44.826Z,95748.67
2018-01-16T09:29:16.882Z,95753.27
2018-01-16T09:31:48.007Z,95762.05
2018-01-16T09:34:19.110Z,95765.32
2018-01-16T09:36:50.192Z,95781.16
2018-01-16T09:39:21.396Z,95775.91
2018-01-16T09:41:52.492Z,95781.55
2018-01-16T09:44:23.688Z,95776.77
2018-01-16T09:46:55.040Z,95783.54
2018-01-16T09:49:26.391Z,95780.52
2018-01-16T09:51:57.636Z,95766.08
2018-01-16T09:54:28.896Z,95786.22
2018-01-16T09:57:00.050Z,95796.11
2018-01-16T09:59:31.868Z,95804.42
2018-01-16T10:02:02.956Z,95803.42
2018-01-16T10:04:34.750Z,95784.38
2018-01-16T10:07:05.912Z,95811.74
2018-01-16T10:09:37.204Z,95806.78
2018-01-16T10:12:08.479Z,95818.51
2018-01-16T10:14:39.814Z,95824.70
2018-01-16T10:17:11.044Z,95821.62
2018-01-16T10:19:42.149Z,95792.80
2018-01-16T10:22:13.352Z,95785.83
2018-01-16T10:24:51.522Z,95778.48
2018-01-16T10:27:23.419Z,95767.27
2018-01-16T10:29:54.759Z,95767.70
2018-01-16T10:32:25.814Z,95759.54
2018-01-16T10:34:56.961Z,95753.55
2018-01-16T10:37:28.533Z,95746.55
2018-01-16T10:39:59.677Z,95755.47
2018-01-16T10:42:30.916Z,95748.80
2018-01-16T10:45:02.168Z,95745.97
2018-01-16T10:47:33.312Z,95746.03
2018-01-16T10:50:04.382Z,95737.19
2018-01-16T10:52:35.708Z,95750.31
2018-01-16T10:55:06.784Z,95746.99
2018-01-16T10:57:38.208Z,95742.48
2018-01-16T11:00:09.235Z,95731.60
2018-01-16T11:02:40.487Z,95717.35
2018-01-16T11:05:11.750Z,95717.81
2018-01-16T11:07:42.898Z,95740.79
2018-01-16T11:10:14.140Z,95725.07
2018-01-16T11:12:45.198Z,95728.94
2018-01-16T11:15:16.540Z,95712.32
2018-01-16T11:17:47.793Z,95688.13
2018-01-16T11:20:18.891Z,95685.05
2018-01-16T11:22:49.972Z,95685.26
2018-01-16T11:25:21.022Z,95680.41
2018-01-16T11:27:52.141Z,95673.10
2018-01-16T11:30:23.425Z,95660.38
2018-01-16T11:32:54.537Z,95679.50
2018-01-16T11:35:25.926Z,95684.88
2018-01-16T11:37:56.982Z,95676.08
2018-01-16T11:40:28.218Z,95684.64
2018-01-16T11:42:59.308Z,95671.53
2018-01-16T11:45:30.452Z,95677.84
2018-01-16T11:48:01.530Z,95656.77
2018-01-16T11:50:32.624Z,95653.08
2018-01-16T11:53:03.716Z,95638.73
2018-01-16T11:55:35.367Z,95641.39
2018-01-16T11:58:06.540Z,95634.48
2018-01-16T12:00:37.803Z,95637.14
2018-01-16T12:03:09.006Z,95629.27
2018-01-16T12:05:40.148Z,95632.42
2018-01-16T12:08:11.209Z,95637.03
2018-01-16T12:10:43.210Z,95629.72
2018-01-16T12:13:14.301Z,95625.82
2018-01-16T12:15:45.496Z,95630.30
2018-01-16T12:18:17.289Z,95612.45
2018-01-16T12:20:48.514Z,95611.19
2018-01-16T12:23:19.606Z,95606.42
2018-01-16T12:25:50.811Z,95609.18
2018-01-16T12:28:21.888Z,95592.14
2018-01-16T12:30:52.966Z,95602.34
2018-01-16T12:33:24.062Z,95587.52
2018-01-16T12:35:55.163Z,95588.05
2018-01-16T12:38:26.260Z,95591.50
2018-01-16T12:40:57.365Z,95580.05
2018-01-16T12:43:28.655Z,95571.38
2018-01-16T12:45:59.759Z,95576.62
2018-01-16T12:48:30.873Z,95571.25
2018-01-16T12:51:01.982Z,95575.98
2018-01-16T12:53:33.356Z,95578.59
2018-01-16T12:56:05.085Z,95579.92
2018-01-16T12:58:36.174Z,95582.16
2018-01-16T13:01:07.269Z,95585.73
2018-01-16T13:03:38.416Z,95584.52
2018-01-16T13:06:09.534Z,95590.23
2018-01-16T13:08:40.716Z,95575.94
2018-01-16T13:11:11.765Z,95577.76
2018-01-16T13:13:43.014Z,95584.52
2018-01-16T13:16:14.265Z,95597.45
2018-01-16T13:18:45.388Z,95579.20
2018-01-16T13:21:16.657Z,95584.84
2018-01-16T13:23:47.905Z,95582.92
2018-01-16T13:26:19.014Z,95574.89
2018-01-16T13:28:50.182Z,95576.94
2018-01-16T13:31:21.340Z,95570.61
2018-01-16T13:33:52.383Z,95572.20
2018-01-16T13:36:23.540Z,95583.16
2018-01-16T13:38:54.786Z,95591.59
2018-01-16T13:41:26.018Z,95593.72
2018-01-16T13:43:57.188Z,95609.56
2018-01-16T13:46:28.316Z,95630.40
2018-01-16T13:48:59.408Z,95668.27
2018-01-16T13:51:30.487Z,95717.63
2018-01-16T13:54:02.284Z,95699.75
2018-01-16T13:56:33.398Z,95702.95
2018-01-16T13:59:04.484Z,95701.05
2018-01-16T14:01:35.720Z,95690.61
2018-01-16T14:04:06.829Z,95684.86
2018-01-16T14:06:37.927Z,95676.19
2018-01-16T14:09:09.146Z,95656.00
2018-01-16T14:11:40.243Z,95650.17
2018-01-16T14:14:11.275Z,95645.39
2018-01-16T14:16:42.607Z,95610.28
2018-01-16T14:19:13.711Z,95613.73
2018-01-16T14:21:44.803Z,95620.01
2018-01-16T14:24:17.179Z,95634.77
2018-01-16T14:26:48.316Z,95639.66
2018-01-16T14:29:19.443Z,95652.38
2018-01-16T14:31:50.520Z,95664.08
2018-01-16T14:34:21.658Z,95677.04
2018-01-16T14:36:53.207Z,95668.91
2018-01-16T14:39:25.075Z,95658.25
2018-01-16T14:41:56.313Z,95657.78
2018-01-16T14:44:27.579Z,95679.07
2018-01-16T14:46:58.831Z,95679.00
2018-01-16T14:49:30.076Z,95673.55
2018-01-16T14:52:01.324Z,95685.03
2018-01-16T14:54:32.453Z,95693.42
2018-01-16T14:57:03.620Z,95702.09
2018-01-16T14:59:34.970Z,95702.45
2018-01-16T15:02:06.060Z,95710.70
2018-01-16T15:04:37.366Z,95720.91
2018-01-16T15:07:08.500Z,95732.27
2018-01-16T15:09:39.611Z,95743.05
2018-01-16T15:12:10.683Z,95758.67
2018-01-16T15:14:41.821Z,95775.94
2018-01-16T15:17:12.943Z,95781.70
2018-01-16T15:19:44.863Z,95769.78
2018-01-16T15:22:15.974Z,95775.00
2018-01-16T15:24:47.138Z,95770.80
2018-01-16T15:27:18.508Z,95759.78
2018-01-16T15:29:49.578Z,95770.82
2018-01-16T15:32:20.661Z,95791.78
2018-01-16T15:34:51.741Z,95805.68
2018-01-16T15:37:23.582Z,95787.27
2018-01-16T15:39:54.822Z,95808.30
2018-01-16T15:42:25.995Z,95807.66
2018-01-16T15:44:57.239Z,95824.80
2018-01-16T15:47:28.503Z,95828.83
2018-01-16T15:49:59.752Z,95823.87
2018-01-16T15:52:30.896Z,95816.55
2018-01-16T15:55:02.134Z,95820.34
2018-01-16T15:57:33.256Z,95830.55
2018-01-16T16:00:04.532Z,95825.14
2018-01-16T16:02:36.410Z,95822.25
2018-01-16T16:05:07.563Z,95813.90
2018-01-16T16:07:39.657Z,95793.50
2018-01-16T16:10:10.726Z,95783.98
2018-01-16T16:12:42.489Z,95791.45
2018-01-16T16:15:13.606Z,95796.56
2018-01-16T16:17:44.689Z,95804.78
2018-01-16T16:20:15.959Z,95827.25
2018-01-16T16:22:47.324Z,95834.08
2018-01-16T16:25:18.554Z,95838.00
2018-01-16T16:27:49.639Z,95819.41
2018-01-16T16:30:20.714Z,95815.47
2018-01-16T16:32:51.912Z,95825.57
2018-01-16T16:35:23.981Z,95832.63
2018-01-16T16:37:55.116Z,95829.47
2018-01-16T16:40:26.364Z,95829.20
2018-01-16T16:42:57.525Z,95821.89
2018-01-16T16:45:28.585Z,95819.27
2018-01-16T16:47:59.737Z,95811.53
2018-01-16T16:50:30.849Z,95813.38
2018-01-16T16:53:01.976Z,95819.66
2018-01-16T16:55:33.156Z,95824.23
2018-01-16T16:58:04.303Z,95810.24
2018-01-16T17:00:35.834Z,95804.22
2018-01-16T17:03:06.912Z,95794.41
2018-01-16T17:05:38.033Z,95784.98
2018-01-16T17:08:09.121Z,95785.25
2018-01-16T17:10:40.230Z,95790.76
2018-01-16T17:13:13.538Z,95813.80
2018-01-16T17:15:44.669Z,95806.72
2018-01-16T17:18:15.832Z,95808.03
2018-01-16T17:20:47.185Z,95823.34
2018-01-16T17:23:18.233Z,95810.00
2018-01-16T17:25:49.479Z,95806.74
2018-01-16T17:28:20.625Z,95815.63
2018-01-16T17:30:51.728Z,95817.47
2018-01-16T17:33:22.916Z,95819.02
2018-01-16T17:35:54.043Z,95832.75
2018-01-16T17:38:25.168Z,95828.31
2018-01-16T17:40:56.360Z,95830.00
2018-01-16T17:43:27.418Z,95827.67
2018-01-16T17:45:58.524Z,95810.80
2018-01-16T17:48:29.603Z,95815.12
2018-01-16T17:51:00.952Z,95799.96
2018-01-16T17:53:32.059Z,95810.29
2018-01-16T17:56:03.133Z,95811.05
2018-01-16T17:58:35.346Z,95805.19
2018-01-16T18:01:06.408Z,95799.69
2018-01-16T18:03:37.625Z,95805.70
2018-01-16T18:06:08.834Z,95804.39
2018-01-16T18:08:39.983Z,95809.09
2018-01-16T18:11:11.146Z,95804.25
2018-01-16T18:13:42.305Z,95801.26
2018-01-16T18:16:13.372Z,95801.78
2018-01-16T18:18:44.587Z,95809.63
2018-01-16T18:21:15.723Z,95815.50
2018-01-16T18:23:46.771Z,95813.55
2018-01-16T18:26:18.014Z,95817.22
2018-01-16T18:28:49.195Z,95819.95
2018-01-16T18:31:20.424Z,95813.02
2018-01-16T18:33:51.558Z,95813.42
2018-01-16T18:36:22.822Z,95809.34
2018-01-16T18:38:53.967Z,95812.07
2018-01-16T18:41:25.216Z,95817.31
2018-01-16T18:43:56.475Z,95819.39
2018-01-16T18:46:27.835Z,95829.98
2018-01-16T18:48:59.068Z,95818.89
2018-01-16T18:51:30.205Z,95821.91
2018-01-16T18:54:01.289Z,95816.80
2018-01-16T18:56:32.714Z,95808.17
2018-01-16T18:59:03.799Z,95804.50
2018-01-16T19:01:35.009Z,95818.64
2018-01-16T19:04:06.246Z,95800.47
2018-01-16T19:06:37.344Z,95816.93
2018-01-16T19:09:08.695Z,95801.38
2018-01-16T19:11:39.902Z,95790.12
2018-01-16T19:14:11.253Z,95782.39
2018-01-16T19:16:42.377Z,95771.45
2018-01-16T19:19:13.447Z,95768.31
2018-01-16T19:21:45.239Z,95776.43
2018-01-16T19:24:23.208Z,95792.11
2018-01-16T19:26:54.532Z,95804.91
2018-01-16T19:29:26.527Z,95816.16
2018-01-16T19:31:57.579Z,95802.81
2018-01-16T19:34:28.821Z,95795.89
2018-01-16T19:36:59.953Z,95785.70
2018-01-16T19:39:32.011Z,95772.63
2018-01-16T19:42:03.284Z,95781.12
2018-01-16T19:44:34.382Z,95782.28
2018-01-16T19:47:05.867Z,95781.12
2018-01-16T19:49:37.034Z,95787.53
2018-01-16T19:52:08.137Z,95800.33
2018-01-16T19:54:39.708Z,95801.92
2018-01-16T19:57:11.840Z,95805.31
2018-01-16T19:59:43.036Z,95780.98
2018-01-16T20:02:14.220Z,95790.00
2018-01-16T20:04:45.355Z,95788.70
2018-01-16T20:07:16.698Z,95779.55
2018-01-16T20:09:47.801Z,95776.15
2018-01-16T20:12:20.810Z,95780.73
2018-01-16T20:14:51.857Z,95777.95
2018-01-16T20:17:22.973Z,95780.81
2018-01-16T20:19:54.378Z,95777.97
2018-01-16T20:22:25.485Z,95789.08
2018-01-16T20:24:56.673Z,95793.80
2018-01-16T20:27:27.810Z,95796.83
2018-01-16T20:29:59.171Z,95795.38
2018-01-16T20:32:30.358Z,95787.41
2018-01-16T20:35:01.564Z,95784.94
2018-01-16T20:37:32.664Z,95796.81
2018-01-16T20:40:06.760Z,95796.43
2018-01-16T20:42:38.192Z,95805.45
2018-01-16T20:45:10.878Z,95802.30
2018-01-16T20:47:42.525Z,95798.64
2018-01-16T20:50:14.282Z,95782.04
2018-01-16T20:52:46.686Z,95789.23
2018-01-16T20:55:17.887Z,95785.97
2018-01-16T20:57:49.153Z,95789.75
2018-01-16T21:00:20.403Z,95815.75
2018-01-16T21:02:52.553Z,95836.14
2018-01-16T21:05:23.667Z,95823.36
2018-01-16T21:07:54.867Z,95816.95
2018-01-16T21:10:26.246Z,95815.11
2018-01-16T21:12:57.364Z,95810.52
2018-01-16T21:15:28.489Z,95807.66
2018-01-16T21:17:59.947Z,95797.47
2018-01-16T21:20:31.215Z,95796.29
2018-01-16T21:23:02.713Z,95803.20
2018-01-16T21:25:33.919Z,95820.31
2018-01-16T21:28:05.074Z,95829.45
2018-01-16T21:30:36.164Z,95833.91
2018-01-16T21:33:07.259Z,95836.00
2018-01-16T21:35:38.508Z,95829.84
2018-01-16T21:38:09.740Z,95831.55
2018-01-16T21:40:40.998Z,95810.61
2018-01-16T21:43:12.042Z,95808.48
2018-01-16T21:45:43.169Z,95796.97
2018-01-16T21:48:14.268Z,95814.61
2018-01-16T21:50:45.391Z,95795.52
2018-01-16T21:53:16.439Z,95791.33
2018-01-16T21:55:47.682Z,95796.92
2018-01-16T21:58:18.812Z,95783.47
2018-01-16T22:00:49.912Z,95785.84
2018-01-16T22:03:21.447Z,95798.90
2018-01-16T22:05:52.577Z,95802.18
2018-01-16T22:08:23.930Z,95801.77
2018-01-16T22:10:55.024Z,95799.23
2018-01-16T22:13:26.116Z,95795.42
2018-01-16T22:15:57.475Z,95797.25
2018-01-16T22:18:28.825Z,95787.55
2018-01-16T22:21:00.176Z,95784.75
2018-01-16T22:23:31.733Z,95770.06
2018-01-16T22:26:02.983Z,95785.00
2018-01-16T22:28:34.095Z,95787.52
2018-01-16T22:31:05.401Z,95788.17
2018-01-16T22:33:36.629Z,95791.19
2018-01-16T22:36:07.776Z,95803.03
2018-01-16T22:38:38.921Z,95796.90
2018-01-16T22:41:10.014Z,95804.16
2018-01-16T22:43:41.180Z,95809.51
2018-01-16T22:46:12.269Z,95807.11
2018-01-16T22:48:43.365Z,95800.45
2018-01-16T22:51:14.655Z,95787.88
2018-01-16T22:53:45.797Z,95782.59
2018-01-16T22:56:16.920Z,95782.73
2018-01-16T22:58:48.654Z,95774.49
2018-01-16T23:01:19.962Z,95775.27
2018-01-16T23:03:51.214Z,95788.13
2018-01-16T23:06:22.349Z,95790.86
2018-01-16T23:08:53.443Z,95796.09
2018-01-16T23:11:24.839Z,95816.46
2018-01-16T23:13:56.105Z,95814.13
2018-01-16T23:16:27.456Z,95816.75
2018-01-16T23:18:58.603Z,95814.41
2018-01-16T23:21:29.697Z,95811.92
2018-01-16T23:24:00.743Z,95815.59
2018-01-16T23:26:32.335Z,95808.59
2018-01-16T23:29:03.392Z,95807.97
2018-01-16T23:31:34.501Z,95801.66
2018-01-16T23:34:05.794Z,95794.87
2018-01-16T23:36:37.144Z,95779.11
2018-01-16T23:39:08.497Z,95774.07
2018-01-16T23:41:40.602Z,95760.11
2018-01-16T23:44:11.681Z,95741.95
2018-01-16T23:46:42.729Z,95736.66
2018-01-16T23:49:13.893Z,95735.63
2018-01-16T23:51:45.036Z,95740.12
2018-01-16T23:54:16.121Z,95741.99
2018-01-16T23:56:47.264Z,95730.77
2018-01-16T23:59:18.688Z,95748.20
